Deer Park, Washington
Current Conditions -  °F | °C
As of 9:53 AM on Thursday 30 Oct 2014 (Local Time) from KDEW Reporting Station
Overcast Overcast  
Wind Chill: 51°   Ceiling: 8000
Heat Index: 51°   Visibility: 10mi
Dew Point: 43°   Wind: 12mph
Humidity: 74%   Direction: 30°NNE
Pressure: 30.12"   Gusts: NA
Location:  47.95°N, 117.48°W
Report Text: KDEW 301653Z AUTO 03010KT 10SM OVC080 11/06 A3012 RMK AO2 SLP204 T01060061
Loading
Personal Weather Stations






























Interactive Weather Map
Tropical Storm Tracking
New forecast layout! Learn more

10-Day Weather Forecast

Advertisements
Track Severe Weather on mobile